PAL306 RPVM-RPLL
Flight info
| Callsign | PAL306 |
|---|---|
| Flight time | 1h 15m |
| Altitude | 34000 |
| Route | PARAO4P PARAO DCT ROX DCT LAIYA LAIYA3R |
| Aircraft | B77W/H-SDE3FGHIM3RWXY/LB1 |
Departure
| Time | 2026-05-04 05:35 |
|---|---|
| Airport | Mactan Cebu International Airport (RPVM) |
Arrival
| Time | 2026-05-04 06:50 |
|---|---|
| Airport | Ninoy Aquino International Airport (RPLL) |
| Time | Latitude | Longitude | Altitude | Speed | Heading |
|---|---|---|---|---|---|
| 2026-05-04 05:07 | 10.31451 | 123.97895 | 39 ft | 0 kts | 310° |
| 2026-05-04 05:17 | 10.31442 | 123.97907 | 39 ft | 2 kts | 310° |
| 2026-05-04 05:17 | 10.31432 | 123.97918 | 39 ft | 2 kts | 310° |
| 2026-05-04 05:17 | 10.31426 | 123.97926 | 39 ft | 1 kts | 310° |
| 2026-05-04 05:17 | 10.31418 | 123.97938 | 39 ft | 2 kts | 277° |
| 2026-05-04 05:18 | 10.31420 | 123.97952 | 39 ft | 2 kts | 245° |
| 2026-05-04 05:18 | 10.31424 | 123.97960 | 39 ft | 1 kts | 225° |
| 2026-05-04 05:18 | 10.31428 | 123.97965 | 39 ft | 0 kts | 225° |
| 2026-05-04 05:21 | 10.31427 | 123.97963 | 39 ft | 1 kts | 225° |
| 2026-05-04 05:22 | 10.31409 | 123.97944 | 39 ft | 6 kts | 226° |
| 2026-05-04 05:22 | 10.31375 | 123.97910 | 39 ft | 7 kts | 216° |
| 2026-05-04 05:22 | 10.31331 | 123.97901 | 39 ft | 5 kts | 163° |
| 2026-05-04 05:22 | 10.31302 | 123.97921 | 39 ft | 5 kts | 137° |
| 2026-05-04 05:23 | 10.31275 | 123.97948 | 39 ft | 5 kts | 135° |
| 2026-05-04 05:23 | 10.31246 | 123.97974 | 39 ft | 5 kts | 148° |
| 2026-05-04 05:23 | 10.31205 | 123.97977 | 39 ft | 5 kts | 196° |
| 2026-05-04 05:23 | 10.31177 | 123.97955 | 39 ft | 5 kts | 223° |
| 2026-05-04 05:24 | 10.31148 | 123.97927 | 39 ft | 6 kts | 225° |
| 2026-05-04 05:24 | 10.31105 | 123.97884 | 39 ft | 10 kts | 225° |
| 2026-05-04 05:24 | 10.31057 | 123.97833 | 39 ft | 9 kts | 225° |
| 2026-05-04 05:24 | 10.31010 | 123.97787 | 39 ft | 8 kts | 225° |
| 2026-05-04 05:25 | 10.30969 | 123.97746 | 39 ft | 7 kts | 225° |
| 2026-05-04 05:25 | 10.30932 | 123.97708 | 39 ft | 7 kts | 225° |
| 2026-05-04 05:25 | 10.30897 | 123.97672 | 39 ft | 6 kts | 225° |
| 2026-05-04 05:25 | 10.30864 | 123.97639 | 39 ft | 6 kts | 224° |
| 2026-05-04 05:26 | 10.30833 | 123.97607 | 39 ft | 6 kts | 225° |
| 2026-05-04 05:26 | 10.30801 | 123.97576 | 39 ft | 6 kts | 225° |
| 2026-05-04 05:26 | 10.30757 | 123.97532 | 39 ft | 11 kts | 225° |
| 2026-05-04 05:26 | 10.30690 | 123.97465 | 39 ft | 14 kts | 225° |
| 2026-05-04 05:27 | 10.30618 | 123.97392 | 39 ft | 14 kts | 225° |
| 2026-05-04 05:28 | 10.30224 | 123.96999 | 39 ft | 8 kts | 224° |
| 2026-05-04 05:29 | 10.30184 | 123.96960 | 39 ft | 7 kts | 225° |
| 2026-05-04 05:29 | 10.30148 | 123.96924 | 39 ft | 7 kts | 224° |
| 2026-05-04 05:29 | 10.30114 | 123.96890 | 39 ft | 6 kts | 224° |
| 2026-05-04 05:29 | 10.30081 | 123.96858 | 39 ft | 6 kts | 225° |
| 2026-05-04 05:31 | 10.29861 | 123.96726 | 39 ft | 4 kts | 139° |
| 2026-05-04 05:31 | 10.29839 | 123.96751 | 39 ft | 5 kts | 133° |
| 2026-05-04 05:32 | 10.29814 | 123.96777 | 39 ft | 5 kts | 134° |
| 2026-05-04 05:32 | 10.29787 | 123.96805 | 39 ft | 5 kts | 134° |
| 2026-05-04 05:32 | 10.29759 | 123.96834 | 39 ft | 5 kts | 135° |
| 2026-05-04 05:33 | 10.29717 | 123.96892 | 39 ft | 3 kts | 89° |
| 2026-05-04 05:33 | 10.29725 | 123.96909 | 39 ft | 2 kts | 51° |
| 2026-05-04 05:33 | 10.29740 | 123.96924 | 39 ft | 4 kts | 44° |
| 2026-05-04 05:33 | 10.29805 | 123.96988 | 39 ft | 30 kts | 45° |
| 2026-05-04 05:34 | 10.30082 | 123.97266 | 39 ft | 81 kts | 45° |
| 2026-05-04 05:34 | 10.30598 | 123.97785 | 39 ft | 126 kts | 45° |
| 2026-05-04 05:34 | 10.31313 | 123.98509 | 98 ft | 159 kts | 43° |
| 2026-05-04 05:34 | 10.32079 | 123.99340 | 473 ft | 165 kts | 45° |
| 2026-05-04 05:35 | 10.32861 | 124.00211 | 1006 ft | 166 kts | 49° |
| 2026-05-04 05:35 | 10.33674 | 124.01086 | 1296 ft | 186 kts | 44° |
| 2026-05-04 05:35 | 10.34692 | 124.02116 | 1346 ft | 222 kts | 44° |
| 2026-05-04 05:35 | 10.35850 | 124.03276 | 1688 ft | 247 kts | 45° |
| 2026-05-04 05:36 | 10.37094 | 124.04532 | 2411 ft | 254 kts | 43° |
| 2026-05-04 05:36 | 10.38602 | 124.05438 | 3206 ft | 260 kts | 17° |
| 2026-05-04 05:36 | 10.40417 | 124.05480 | 3970 ft | 270 kts | 348° |
| 2026-05-04 05:36 | 10.42094 | 124.04591 | 4763 ft | 280 kts | 319° |
| 2026-05-04 05:37 | 10.43208 | 124.02958 | 5565 ft | 287 kts | 294° |
| 2026-05-04 05:37 | 10.44030 | 124.01124 | 6360 ft | 290 kts | 301° |
| 2026-05-04 05:37 | 10.45083 | 123.99390 | 7162 ft | 292 kts | 305° |
| 2026-05-04 05:38 | 10.47468 | 123.96043 | 8803 ft | 296 kts | 309° |
| 2026-05-04 05:38 | 10.48741 | 123.94390 | 9590 ft | 299 kts | 310° |
| 2026-05-04 05:38 | 10.50042 | 123.92739 | 10293 ft | 306 kts | 310° |
| 2026-05-04 05:38 | 10.51465 | 123.90960 | 10422 ft | 337 kts | 310° |
| 2026-05-04 05:39 | 10.52988 | 123.89069 | 10799 ft | 358 kts | 310° |
| 2026-05-04 05:39 | 10.56199 | 123.85093 | 12465 ft | 369 kts | 310° |
| 2026-05-04 05:39 | 10.57838 | 123.83068 | 13196 ft | 377 kts | 310° |
| 2026-05-04 05:40 | 10.61192 | 123.78925 | 14810 ft | 388 kts | 311° |
| 2026-05-04 05:40 | 10.62921 | 123.76790 | 15646 ft | 392 kts | 311° |
| 2026-05-04 05:40 | 10.64659 | 123.74643 | 16428 ft | 397 kts | 311° |
| 2026-05-04 05:41 | 10.66434 | 123.72450 | 17187 ft | 403 kts | 311° |
| 2026-05-04 05:41 | 10.68218 | 123.70245 | 18004 ft | 407 kts | 311° |
| 2026-05-04 05:41 | 10.70021 | 123.68018 | 18818 ft | 411 kts | 311° |
| 2026-05-04 05:41 | 10.71826 | 123.65787 | 19615 ft | 415 kts | 310° |
| 2026-05-04 05:42 | 10.73673 | 123.63502 | 20394 ft | 418 kts | 310° |
| 2026-05-04 05:42 | 10.75524 | 123.61214 | 21114 ft | 421 kts | 310° |
| 2026-05-04 05:42 | 10.77373 | 123.58927 | 21815 ft | 424 kts | 310° |
| 2026-05-04 05:42 | 10.79267 | 123.56584 | 22442 ft | 429 kts | 310° |
| 2026-05-04 05:43 | 10.81152 | 123.54252 | 23041 ft | 433 kts | 310° |
| 2026-05-04 05:43 | 10.83068 | 123.51881 | 23620 ft | 437 kts | 310° |
| 2026-05-04 05:43 | 10.85010 | 123.49476 | 24179 ft | 441 kts | 310° |
| 2026-05-04 05:45 | 11.00011 | 123.33089 | 27587 ft | 465 kts | 317° |
| 2026-05-04 05:45 | 11.02387 | 123.30802 | 28045 ft | 467 kts | 317° |
| 2026-05-04 05:47 | 11.19243 | 123.14580 | 30759 ft | 486 kts | 317° |
| 2026-05-04 05:47 | 11.21679 | 123.12234 | 31130 ft | 488 kts | 316° |
| 2026-05-04 05:47 | 11.24157 | 123.09847 | 31539 ft | 489 kts | 316° |
| 2026-05-04 05:48 | 11.26625 | 123.07468 | 32156 ft | 485 kts | 316° |
| 2026-05-04 05:48 | 11.29064 | 123.05118 | 32815 ft | 481 kts | 316° |
| 2026-05-04 05:48 | 11.31483 | 123.02786 | 33317 ft | 480 kts | 316° |
| 2026-05-04 05:48 | 11.33904 | 123.00450 | 33874 ft | 477 kts | 316° |
| 2026-05-04 05:49 | 11.38697 | 122.95824 | 33883 ft | 472 kts | 316° |
| 2026-05-04 05:49 | 11.43474 | 122.91213 | 33883 ft | 476 kts | 316° |
| 2026-05-04 05:51 | 11.63144 | 122.73229 | 33893 ft | 475 kts | 325° |
| 2026-05-04 05:52 | 11.68624 | 122.69456 | 33885 ft | 474 kts | 325° |
| 2026-05-04 05:52 | 11.74082 | 122.65715 | 33884 ft | 474 kts | 325° |
| 2026-05-04 05:54 | 11.96053 | 122.50677 | 33873 ft | 474 kts | 325° |
| 2026-05-04 05:55 | 12.01540 | 122.46918 | 33875 ft | 474 kts | 325° |
| 2026-05-04 05:55 | 12.07017 | 122.43165 | 33875 ft | 474 kts | 325° |
| 2026-05-04 05:56 | 12.12509 | 122.39399 | 33869 ft | 473 kts | 325° |
| 2026-05-04 05:56 | 12.17982 | 122.35645 | 33868 ft | 474 kts | 325° |
| 2026-05-04 05:57 | 12.23482 | 122.31870 | 33869 ft | 475 kts | 325° |
| 2026-05-04 05:57 | 12.28945 | 122.28118 | 33868 ft | 475 kts | 325° |
| 2026-05-04 05:58 | 12.34450 | 122.24336 | 33869 ft | 475 kts | 325° |
| 2026-05-04 05:58 | 12.39956 | 122.20551 | 33869 ft | 475 kts | 325° |
| 2026-05-04 05:59 | 12.45423 | 122.16791 | 33870 ft | 475 kts | 325° |
| 2026-05-04 05:59 | 12.50913 | 122.13013 | 33870 ft | 475 kts | 325° |
| 2026-05-04 06:00 | 12.56391 | 122.09242 | 33870 ft | 475 kts | 325° |
| 2026-05-04 06:00 | 12.61868 | 122.05469 | 33871 ft | 476 kts | 325° |
| 2026-05-04 06:01 | 12.67397 | 122.01659 | 33871 ft | 476 kts | 325° |
| 2026-05-04 06:03 | 12.89342 | 121.86515 | 33884 ft | 476 kts | 325° |
| 2026-05-04 06:05 | 13.14061 | 121.69416 | 33890 ft | 476 kts | 325° |
| 2026-05-04 06:06 | 13.19542 | 121.65619 | 33886 ft | 475 kts | 324° |
| 2026-05-04 06:06 | 13.25038 | 121.61809 | 33886 ft | 474 kts | 324° |
| 2026-05-04 06:07 | 13.30363 | 121.58117 | 33846 ft | 449 kts | 324° |
| 2026-05-04 06:07 | 13.32940 | 121.56329 | 33560 ft | 441 kts | 324° |
| 2026-05-04 06:07 | 13.35491 | 121.54556 | 32756 ft | 444 kts | 325° |
| 2026-05-04 06:07 | 13.38040 | 121.52786 | 31965 ft | 447 kts | 325° |
| 2026-05-04 06:08 | 13.40634 | 121.50984 | 31085 ft | 447 kts | 325° |
| 2026-05-04 06:08 | 13.43187 | 121.49210 | 29760 ft | 452 kts | 326° |
| 2026-05-04 06:08 | 13.45802 | 121.47393 | 28642 ft | 449 kts | 326° |
| 2026-05-04 06:08 | 13.48334 | 121.45634 | 27754 ft | 442 kts | 326° |
| 2026-05-04 06:09 | 13.50866 | 121.43874 | 26854 ft | 436 kts | 326° |
| 2026-05-04 06:09 | 13.53339 | 121.42155 | 26333 ft | 419 kts | 326° |
| 2026-05-04 06:11 | 13.68518 | 121.31036 | 22074 ft | 367 kts | 324° |
| 2026-05-04 06:11 | 13.70575 | 121.29503 | 21406 ft | 363 kts | 324° |
| 2026-05-04 06:13 | 13.84374 | 121.19209 | 16961 ft | 338 kts | 325° |
| 2026-05-04 06:14 | 13.95597 | 121.10825 | 14605 ft | 324 kts | 326° |
| 2026-05-04 06:14 | 13.97410 | 121.09470 | 13945 ft | 322 kts | 325° |
| 2026-05-04 06:15 | 13.99196 | 121.08134 | 13382 ft | 317 kts | 326° |
| 2026-05-04 06:15 | 14.00989 | 121.06793 | 12784 ft | 313 kts | 326° |
| 2026-05-04 06:15 | 14.02739 | 121.05485 | 12220 ft | 309 kts | 326° |
| 2026-05-04 06:15 | 14.04458 | 121.04199 | 11635 ft | 306 kts | 326° |
| 2026-05-04 06:16 | 14.06184 | 121.02908 | 11042 ft | 303 kts | 326° |
| 2026-05-04 06:16 | 14.07877 | 121.01640 | 10509 ft | 300 kts | 326° |
| 2026-05-04 06:16 | 14.09555 | 121.00384 | 10044 ft | 292 kts | 327° |
| 2026-05-04 06:16 | 14.11170 | 120.99173 | 9654 ft | 283 kts | 327° |
| 2026-05-04 06:17 | 14.12762 | 120.97982 | 9129 ft | 282 kts | 327° |
| 2026-05-04 06:17 | 14.14333 | 120.96807 | 8583 ft | 281 kts | 327° |
| 2026-05-04 06:17 | 14.15921 | 120.95618 | 8110 ft | 277 kts | 327° |
| 2026-05-04 06:17 | 14.17446 | 120.94504 | 7847 ft | 265 kts | 331° |
| 2026-05-04 06:18 | 14.19041 | 120.93549 | 7346 ft | 264 kts | 333° |
| 2026-05-04 06:18 | 14.20630 | 120.92619 | 6892 ft | 262 kts | 333° |
| 2026-05-04 06:18 | 14.22226 | 120.91676 | 6431 ft | 261 kts | 333° |
| 2026-05-04 06:20 | 14.32543 | 120.85638 | 4638 ft | 227 kts | 334° |
| 2026-05-04 06:20 | 14.33868 | 120.84867 | 4556 ft | 209 kts | 335° |
| 2026-05-04 06:21 | 14.38541 | 120.82336 | 4627 ft | 185 kts | 359° |
| 2026-05-04 06:21 | 14.39793 | 120.82542 | 4473 ft | 187 kts | 27° |
| 2026-05-04 06:22 | 14.40692 | 120.83458 | 4135 ft | 183 kts | 62° |
| 2026-05-04 06:22 | 14.41263 | 120.84626 | 3788 ft | 183 kts | 62° |
| 2026-05-04 06:25 | 14.48090 | 120.97004 | 762 ft | 137 kts | 62° |
| 2026-05-04 06:25 | 14.48578 | 120.97874 | 570 ft | 141 kts | 63° |
| 2026-05-04 06:26 | 14.49042 | 120.98753 | 433 ft | 134 kts | 61° |
| 2026-05-04 06:26 | 14.49555 | 120.99596 | 215 ft | 146 kts | 63° |
| 2026-05-04 06:26 | 14.50079 | 121.00526 | 143 ft | 146 kts | 60° |
| 2026-05-04 06:26 | 14.50611 | 121.01426 | 534 ft | 152 kts | 61° |
| 2026-05-04 06:27 | 14.52925 | 121.04890 | 2069 ft | 199 kts | 43° |
| 2026-05-04 06:28 | 14.54154 | 121.05779 | 1821 ft | 229 kts | 34° |
| 2026-05-04 06:28 | 14.55566 | 121.06641 | 1926 ft | 244 kts | 31° |
| 2026-05-04 06:28 | 14.57162 | 121.07500 | 1727 ft | 267 kts | 26° |
| 2026-05-04 06:28 | 14.58882 | 121.08100 | 1656 ft | 254 kts | 18° |
| 2026-05-04 06:29 | 14.60541 | 121.08492 | 2222 ft | 242 kts | 14° |
| 2026-05-04 06:29 | 14.62266 | 121.08615 | 2881 ft | 261 kts | 350° |
| 2026-05-04 06:29 | 14.63874 | 121.07733 | 3859 ft | 272 kts | 316° |
| 2026-05-04 06:29 | 14.64811 | 121.06052 | 4945 ft | 275 kts | 295° |
| 2026-05-04 06:30 | 14.65442 | 121.04125 | 5532 ft | 295 kts | 281° |
| 2026-05-04 06:30 | 14.65655 | 121.01975 | 5472 ft | 312 kts | 272° |
| 2026-05-04 06:30 | 14.65539 | 120.99745 | 5133 ft | 308 kts | 263° |
| 2026-05-04 06:30 | 14.65097 | 120.97619 | 4781 ft | 307 kts | 253° |
| 2026-05-04 06:31 | 14.64316 | 120.95566 | 4555 ft | 302 kts | 244° |
| 2026-05-04 06:31 | 14.63390 | 120.93660 | 4520 ft | 299 kts | 242° |
| 2026-05-04 06:31 | 14.62295 | 120.91815 | 4318 ft | 302 kts | 233° |
| 2026-05-04 06:31 | 14.60938 | 120.90173 | 4095 ft | 299 kts | 224° |
| 2026-05-04 06:32 | 14.59359 | 120.88783 | 3877 ft | 296 kts | 214° |
| 2026-05-04 06:33 | 14.46026 | 120.87697 | 5882 ft | 300 kts | 155° |
| 2026-05-04 06:34 | 14.44172 | 120.88617 | 5661 ft | 291 kts | 146° |
| 2026-05-04 06:34 | 14.42527 | 120.89776 | 5484 ft | 288 kts | 140° |
| 2026-05-04 06:34 | 14.40909 | 120.90987 | 5435 ft | 282 kts | 143° |
| 2026-05-04 06:34 | 14.39293 | 120.92119 | 5562 ft | 281 kts | 143° |
| 2026-05-04 06:35 | 14.37658 | 120.93238 | 5758 ft | 288 kts | 143° |
| 2026-05-04 06:36 | 14.26861 | 121.02570 | 5696 ft | 277 kts | 132° |
| 2026-05-04 06:37 | 14.25292 | 121.03662 | 6056 ft | 283 kts | 155° |
| 2026-05-04 06:37 | 14.23271 | 121.04127 | 6146 ft | 305 kts | 175° |
| 2026-05-04 06:37 | 14.21147 | 121.03960 | 6083 ft | 302 kts | 189° |
| 2026-05-04 06:37 | 14.19113 | 121.03469 | 6079 ft | 300 kts | 191° |
| 2026-05-04 06:38 | 14.17243 | 121.02666 | 6407 ft | 289 kts | 220° |
| 2026-05-04 06:38 | 14.15816 | 121.01137 | 6563 ft | 300 kts | 225° |
| 2026-05-04 06:40 | 14.17558 | 120.89185 | 6658 ft | 277 kts | 326° |
| 2026-05-04 06:40 | 14.19128 | 120.88010 | 6551 ft | 282 kts | 326° |
| 2026-05-04 06:40 | 14.20855 | 120.87015 | 6095 ft | 282 kts | 346° |
| 2026-05-04 06:40 | 14.22770 | 120.86591 | 5664 ft | 285 kts | 350° |
| 2026-05-04 06:41 | 14.24704 | 120.86104 | 5143 ft | 281 kts | 347° |
| 2026-05-04 06:41 | 14.26352 | 120.85676 | 4701 ft | 236 kts | 348° |
| 2026-05-04 06:41 | 14.27970 | 120.85184 | 4622 ft | 242 kts | 346° |
| 2026-05-04 06:41 | 14.29592 | 120.84682 | 4414 ft | 239 kts | 346° |
| 2026-05-04 06:42 | 14.31169 | 120.84186 | 4213 ft | 237 kts | 346° |
| 2026-05-04 06:42 | 14.32758 | 120.83683 | 4006 ft | 235 kts | 346° |
| 2026-05-04 06:42 | 14.34301 | 120.83192 | 3817 ft | 232 kts | 346° |
| 2026-05-04 06:44 | 14.42328 | 120.86729 | 1918 ft | 167 kts | 60° |
| 2026-05-04 06:44 | 14.42881 | 120.87703 | 1855 ft | 144 kts | 61° |
| 2026-05-04 06:44 | 14.43352 | 120.88535 | 1794 ft | 126 kts | 60° |
| 2026-05-04 06:45 | 14.43774 | 120.89282 | 1992 ft | 122 kts | 62° |
| 2026-05-04 06:45 | 14.44167 | 120.90097 | 2269 ft | 129 kts | 65° |
| 2026-05-04 06:45 | 14.44570 | 120.90968 | 2347 ft | 139 kts | 65° |
| 2026-05-04 06:45 | 14.45015 | 120.91851 | 2226 ft | 140 kts | 59° |
| 2026-05-04 06:46 | 14.45609 | 120.92660 | 1824 ft | 144 kts | 52° |
| 2026-05-04 06:46 | 14.46207 | 120.93447 | 1497 ft | 134 kts | 59° |
| 2026-05-04 06:46 | 14.46666 | 120.94250 | 1223 ft | 128 kts | 59° |
| 2026-05-04 06:46 | 14.47069 | 120.95077 | 1001 ft | 131 kts | 66° |
| 2026-05-04 06:48 | 14.50306 | 121.00962 | 84 ft | 113 kts | 57° |
| 2026-05-04 06:48 | 14.50627 | 121.01530 | 84 ft | 67 kts | 60° |
| 2026-05-04 06:49 | 14.50818 | 121.01878 | 84 ft | 53 kts | 60° |
| 2026-05-04 06:50 | 14.51190 | 121.02284 | 84 ft | 3 kts | 305° |
| 2026-05-04 06:51 | 14.51192 | 121.02264 | 84 ft | 2 kts | 261° |
| 2026-05-04 06:51 | 14.51180 | 121.02237 | 84 ft | 5 kts | 240° |
| 2026-05-04 06:51 | 14.51158 | 121.02198 | 84 ft | 6 kts | 239° |
| 2026-05-04 06:51 | 14.51135 | 121.02158 | 84 ft | 6 kts | 240° |
| 2026-05-04 06:52 | 14.51112 | 121.02117 | 84 ft | 6 kts | 240° |
| 2026-05-04 06:52 | 14.51089 | 121.02077 | 84 ft | 6 kts | 241° |
| 2026-05-04 06:52 | 14.51069 | 121.02037 | 84 ft | 6 kts | 241° |
| 2026-05-04 06:52 | 14.51047 | 121.01997 | 84 ft | 6 kts | 239° |
| 2026-05-04 06:53 | 14.51005 | 121.01924 | 84 ft | 31 kts | 240° |
| 2026-05-04 06:53 | 14.50845 | 121.01636 | 84 ft | 49 kts | 239° |
| 2026-05-04 06:53 | 14.50677 | 121.01331 | 84 ft | 48 kts | 240° |
| 2026-05-04 06:53 | 14.50529 | 121.01067 | 84 ft | 24 kts | 240° |
| 2026-05-04 06:54 | 14.50446 | 121.00918 | 84 ft | 22 kts | 241° |
| 2026-05-04 06:54 | 14.50385 | 121.00808 | 84 ft | 16 kts | 241° |
| 2026-05-04 06:54 | 14.50386 | 121.00703 | 84 ft | 14 kts | 281° |
| 2026-05-04 06:54 | 14.50370 | 121.00629 | 84 ft | 10 kts | 240° |
| 2026-05-04 06:55 | 14.50340 | 121.00576 | 84 ft | 6 kts | 242° |
| 2026-05-04 06:55 | 14.50343 | 121.00545 | 84 ft | 4 kts | 294° |
| 2026-05-04 06:55 | 14.50361 | 121.00516 | 84 ft | 5 kts | 307° |
| 2026-05-04 06:55 | 14.50375 | 121.00498 | 84 ft | 3 kts | 307° |
| 2026-05-04 06:56 | 14.50376 | 121.00497 | 84 ft | 0 kts | 307° |